Jordan, MN

6:32 AM CDT on April 30, 2017 (GMT -0500)
Carver Bluffs, Carver Minnesota | | Change Station

Elev 837 ft 44.75 °N, 93.65 °W | Updated 18 seconds ago

Overcast
Overcast
43.9 °F
Feels Like 42 °F
N
4.0
Wind Variable Wind from NNE

Today
High -- | Low -- °F
--% Chance of Precip.
Yesterday
High -- | Low -- °F
Precip. -- in
Pressure 30.05 in
Visibility 10.0 miles
Clouds Mostly Cloudy 8500 ft
Mostly Cloudy 11000 ft
Windchill 42 °F
Dew Point 27 °F
Humidity 51%
Rainfall 0.00 in
Snow Depth Not available.
6:05 AM 8:18 PM
Waxing Crescent, 22% visible
METAR KFCM 301053Z 06010G18KT 10SM BKN085 BKN110 07/M04 A3004 RMK AO2 SLP174 T00721039
Pressure 30.05 in
Visibility 10.0 miles
Clouds Mostly Cloudy 8500 ft
Mostly Cloudy 11000 ft
Windchill 42 °F
Dew Point 27 °F
Humidity 51%
Rainfall 0.00 in
Snow Depth Not available.
6:05 AM 8:18 PM
Waxing Crescent, 22% visible
METAR KFCM 301053Z 06010G18KT 10SM BKN085 BKN110 07/M04 A3004 RMK AO2 SLP174 T00721039

Get Severe Weather Alerts

Thanks for signing up!

Be on the lookout for a verification email in your inbox.

You'll start receiving the daily forecast at 8 AM.

×

10-Day Weather Forecast

Almanac

Astronomy

Apr. 30, 2017 Rise Set
Actual Time
Civil Twilight
Nautical Twilight
Astronomical Twilight
Moon
Length of Visible Light
Length of Day
Tomorrow will be .
, % of the Moon is Illuminated

Today's Extremes

State Highs State Lows

Community

WunderPhotos

WunderBlog® & News

Nearby

Air Quality

  Air Quality AQ Index Pollutant
Not available.

Snow Depth

Station Depth Elevation

Earthquake Activity

City Distance Mag. Time & Date
Minimum magnitude displayed is 2.5.

Coastal Water Temperatures

Place Temperature

Stations

Nearby Weather Stations

Station Location Temp. Windchill Dew Point Humidity Wind Precip. Elev Updated Type
                   

Watches & Warnings

There are currently no watches in effect.